sensor_id;sensor_type;location;lat;lon;timestamp;P1;durP1;ratioP1;P2;durP2;ratioP2
6282;SDS011;3174;53.486;9.568;2022-07-21T00:01:07;12.75;;;7.93;;
6282;SDS011;3174;53.486;9.568;2022-07-21T00:03:35;12.02;;;6.45;;
6282;SDS011;3174;53.486;9.568;2022-07-21T00:06:03;10.93;;;7.18;;
6282;SDS011;3174;53.486;9.568;2022-07-21T00:08:32;8.23;;;6.13;;
6282;SDS011;3174;53.486;9.568;2022-07-21T00:11:00;8.70;;;5.93;;
6282;SDS011;3174;53.486;9.568;2022-07-21T00:13:28;8.80;;;6.40;;
6282;SDS011;3174;53.486;9.568;2022-07-21T00:15:58;9.52;;;5.97;;
6282;SDS011;3174;53.486;9.568;2022-07-21T00:18:26;11.93;;;7.93;;
6282;SDS011;3174;53.486;9.568;2022-07-21T00:20:55;9.85;;;6.90;;
6282;SDS011;3174;53.486;9.568;2022-07-21T00:23:25;8.63;;;6.40;;
6282;SDS011;3174;53.486;9.568;2022-07-21T00:25:54;10.48;;;7.93;;
6282;SDS011;3174;53.486;9.568;2022-07-21T00:28:22;9.95;;;6.78;;
6282;SDS011;3174;53.486;9.568;2022-07-21T00:30:50;11.85;;;8.18;;
6282;SDS011;3174;53.486;9.568;2022-07-21T00:33:19;11.15;;;6.85;;
6282;SDS011;3174;53.486;9.568;2022-07-21T00:35:47;7.35;;;6.30;;
6282;SDS011;3174;53.486;9.568;2022-07-21T00:38:15;10.60;;;6.80;;
6282;SDS011;3174;53.486;9.568;2022-07-21T00:40:44;15.00;;;8.02;;
6282;SDS011;3174;53.486;9.568;2022-07-21T00:43:12;11.23;;;7.85;;
6282;SDS011;3174;53.486;9.568;2022-07-21T00:45:40;15.23;;;9.00;;
6282;SDS011;3174;53.486;9.568;2022-07-21T00:48:08;13.95;;;9.35;;
6282;SDS011;3174;53.486;9.568;2022-07-21T00:50:37;12.40;;;8.30;;
6282;SDS011;3174;53.486;9.568;2022-07-21T00:53:05;10.60;;;7.38;;
6282;SDS011;3174;53.486;9.568;2022-07-21T00:55:35;11.30;;;6.57;;
6282;SDS011;3174;53.486;9.568;2022-07-21T00:58:03;10.43;;;6.68;;
6282;SDS011;3174;53.486;9.568;2022-07-21T01:00:31;12.70;;;7.78;;
6282;SDS011;3174;53.486;9.568;2022-07-21T01:03:04;15.05;;;8.07;;
6282;SDS011;3174;53.486;9.568;2022-07-21T01:05:33;13.00;;;7.90;;
6282;SDS011;3174;53.486;9.568;2022-07-21T01:08:02;12.18;;;8.32;;
6282;SDS011;3174;53.486;9.568;2022-07-21T01:10:31;11.15;;;7.93;;
6282;SDS011;3174;53.486;9.568;2022-07-21T01:12:59;11.75;;;7.60;;
6282;SDS011;3174;53.486;9.568;2022-07-21T01:15:28;15.10;;;7.28;;
6282;SDS011;3174;53.486;9.568;2022-07-21T01:17:56;12.23;;;7.82;;
6282;SDS011;3174;53.486;9.568;2022-07-21T01:20:24;10.10;;;6.53;;
6282;SDS011;3174;53.486;9.568;2022-07-21T01:22:54;11.80;;;6.95;;
6282;SDS011;3174;53.486;9.568;2022-07-21T01:25:23;10.40;;;7.00;;
6282;SDS011;3174;53.486;9.568;2022-07-21T01:27:51;9.18;;;6.53;;
6282;SDS011;3174;53.486;9.568;2022-07-21T01:30:19;11.38;;;6.72;;
6282;SDS011;3174;53.486;9.568;2022-07-21T01:32:47;11.40;;;6.65;;
6282;SDS011;3174;53.486;9.568;2022-07-21T01:35:16;7.90;;;5.72;;
6282;SDS011;3174;53.486;9.568;2022-07-21T01:37:45;12.00;;;6.75;;
6282;SDS011;3174;53.486;9.568;2022-07-21T01:40:16;9.32;;;6.18;;
6282;SDS011;3174;53.486;9.568;2022-07-21T01:43:03;11.30;;;6.25;;
6282;SDS011;3174;53.486;9.568;2022-07-21T01:45:37;8.80;;;5.55;;
6282;SDS011;3174;53.486;9.568;2022-07-21T01:48:06;10.30;;;6.82;;
6282;SDS011;3174;53.486;9.568;2022-07-21T01:50:34;7.03;;;5.55;;
6282;SDS011;3174;53.486;9.568;2022-07-21T01:53:02;7.05;;;5.38;;
6282;SDS011;3174;53.486;9.568;2022-07-21T01:55:31;11.50;;;7.07;;
6282;SDS011;3174;53.486;9.568;2022-07-21T01:58:00;9.90;;;6.18;;
6282;SDS011;3174;53.486;9.568;2022-07-21T02:00:28;10.38;;;6.40;;
6282;SDS011;3174;53.486;9.568;2022-07-21T02:02:56;13.27;;;6.75;;
6282;SDS011;3174;53.486;9.568;2022-07-21T02:05:24;11.55;;;6.25;;
6282;SDS011;3174;53.486;9.568;2022-07-21T02:07:52;10.98;;;6.38;;
6282;SDS011;3174;53.486;9.568;2022-07-21T02:10:20;6.65;;;4.75;;
6282;SDS011;3174;53.486;9.568;2022-07-21T02:12:49;6.80;;;5.22;;
6282;SDS011;3174;53.486;9.568;2022-07-21T02:15:17;11.90;;;6.63;;
6282;SDS011;3174;53.486;9.568;2022-07-21T02:17:45;7.63;;;5.40;;
6282;SDS011;3174;53.486;9.568;2022-07-21T02:20:13;9.68;;;5.93;;
6282;SDS011;3174;53.486;9.568;2022-07-21T02:22:41;7.03;;;5.20;;
6282;SDS011;3174;53.486;9.568;2022-07-21T02:25:12;7.10;;;5.07;;
6282;SDS011;3174;53.486;9.568;2022-07-21T02:27:40;9.65;;;5.95;;
6282;SDS011;3174;53.486;9.568;2022-07-21T02:30:10;12.88;;;5.32;;
6282;SDS011;3174;53.486;9.568;2022-07-21T02:32:39;5.55;;;4.85;;
6282;SDS011;3174;53.486;9.568;2022-07-21T02:35:08;9.93;;;5.72;;
6282;SDS011;3174;53.486;9.568;2022-07-21T02:37:36;11.00;;;5.40;;
6282;SDS011;3174;53.486;9.568;2022-07-21T02:40:05;12.13;;;5.93;;
6282;SDS011;3174;53.486;9.568;2022-07-21T02:42:33;8.50;;;5.40;;
6282;SDS011;3174;53.486;9.568;2022-07-21T02:45:04;7.10;;;4.82;;
6282;SDS011;3174;53.486;9.568;2022-07-21T02:47:34;8.80;;;5.40;;
6282;SDS011;3174;53.486;9.568;2022-07-21T02:50:15;7.55;;;5.10;;
6282;SDS011;3174;53.486;9.568;2022-07-21T02:52:43;6.43;;;5.00;;
6282;SDS011;3174;53.486;9.568;2022-07-21T02:55:12;7.93;;;4.93;;
6282;SDS011;3174;53.486;9.568;2022-07-21T02:57:40;9.45;;;5.60;;
6282;SDS011;3174;53.486;9.568;2022-07-21T03:00:09;5.90;;;4.35;;
6282;SDS011;3174;53.486;9.568;2022-07-21T03:02:39;6.18;;;4.60;;
6282;SDS011;3174;53.486;9.568;2022-07-21T03:05:07;6.45;;;4.40;;
6282;SDS011;3174;53.486;9.568;2022-07-21T03:07:36;7.95;;;4.90;;
6282;SDS011;3174;53.486;9.568;2022-07-21T03:10:04;8.55;;;4.80;;
6282;SDS011;3174;53.486;9.568;2022-07-21T03:12:32;5.93;;;4.25;;
6282;SDS011;3174;53.486;9.568;2022-07-21T03:15:00;7.28;;;4.82;;
6282;SDS011;3174;53.486;9.568;2022-07-21T03:17:28;7.45;;;4.10;;
6282;SDS011;3174;53.486;9.568;2022-07-21T03:19:58;8.68;;;5.50;;
6282;SDS011;3174;53.486;9.568;2022-07-21T03:22:25;8.98;;;5.60;;
6282;SDS011;3174;53.486;9.568;2022-07-21T03:24:53;11.65;;;6.05;;
6282;SDS011;3174;53.486;9.568;2022-07-21T03:27:21;5.38;;;3.78;;
6282;SDS011;3174;53.486;9.568;2022-07-21T03:29:49;7.38;;;5.10;;
6282;SDS011;3174;53.486;9.568;2022-07-21T03:32:17;8.25;;;5.28;;
6282;SDS011;3174;53.486;9.568;2022-07-21T03:34:45;5.38;;;4.43;;
6282;SDS011;3174;53.486;9.568;2022-07-21T03:37:14;11.25;;;5.38;;
6282;SDS011;3174;53.486;9.568;2022-07-21T03:39:42;5.78;;;3.95;;
6282;SDS011;3174;53.486;9.568;2022-07-21T03:42:10;6.22;;;4.03;;
6282;SDS011;3174;53.486;9.568;2022-07-21T03:44:38;8.52;;;5.18;;
6282;SDS011;3174;53.486;9.568;2022-07-21T03:47:07;10.73;;;5.30;;
6282;SDS011;3174;53.486;9.568;2022-07-21T03:49:35;7.95;;;4.15;;
6282;SDS011;3174;53.486;9.568;2022-07-21T03:52:03;8.07;;;4.85;;
6282;SDS011;3174;53.486;9.568;2022-07-21T03:54:33;6.90;;;4.07;;
6282;SDS011;3174;53.486;9.568;2022-07-21T03:57:01;5.20;;;3.90;;
6282;SDS011;3174;53.486;9.568;2022-07-21T03:59:29;6.25;;;4.20;;
6282;SDS011;3174;53.486;9.568;2022-07-21T04:01:57;7.85;;;4.45;;
6282;SDS011;3174;53.486;9.568;2022-07-21T04:04:25;6.80;;;4.20;;
6282;SDS011;3174;53.486;9.568;2022-07-21T04:06:53;6.97;;;4.30;;
6282;SDS011;3174;53.486;9.568;2022-07-21T04:09:21;6.72;;;4.80;;
6282;SDS011;3174;53.486;9.568;2022-07-21T04:11:50;6.40;;;4.30;;
6282;SDS011;3174;53.486;9.568;2022-07-21T04:14:18;6.18;;;4.00;;
6282;SDS011;3174;53.486;9.568;2022-07-21T04:16:46;8.68;;;4.47;;
6282;SDS011;3174;53.486;9.568;2022-07-21T04:19:14;9.10;;;4.95;;
6282;SDS011;3174;53.486;9.568;2022-07-21T04:21:44;9.00;;;4.95;;
6282;SDS011;3174;53.486;9.568;2022-07-21T04:24:12;9.85;;;4.85;;
6282;SDS011;3174;53.486;9.568;2022-07-21T04:26:40;6.25;;;3.45;;
6282;SDS011;3174;53.486;9.568;2022-07-21T04:29:09;6.10;;;4.20;;
6282;SDS011;3174;53.486;9.568;2022-07-21T04:31:37;6.45;;;4.32;;
6282;SDS011;3174;53.486;9.568;2022-07-21T04:34:06;7.55;;;4.80;;
6282;SDS011;3174;53.486;9.568;2022-07-21T04:36:34;8.60;;;5.15;;
6282;SDS011;3174;53.486;9.568;2022-07-21T04:39:02;5.88;;;3.60;;
6282;SDS011;3174;53.486;9.568;2022-07-21T04:41:30;4.65;;;3.65;;
6282;SDS011;3174;53.486;9.568;2022-07-21T04:43:58;8.50;;;4.40;;
6282;SDS011;3174;53.486;9.568;2022-07-21T04:46:28;8.88;;;4.75;;
6282;SDS011;3174;53.486;9.568;2022-07-21T04:48:56;11.65;;;5.13;;
6282;SDS011;3174;53.486;9.568;2022-07-21T04:51:24;9.45;;;5.00;;
6282;SDS011;3174;53.486;9.568;2022-07-21T04:53:52;10.23;;;5.18;;
6282;SDS011;3174;53.486;9.568;2022-07-21T04:56:20;9.57;;;4.82;;
6282;SDS011;3174;53.486;9.568;2022-07-21T04:58:48;6.20;;;4.03;;
6282;SDS011;3174;53.486;9.568;2022-07-21T05:01:17;6.30;;;3.58;;
6282;SDS011;3174;53.486;9.568;2022-07-21T05:03:46;6.50;;;3.78;;
6282;SDS011;3174;53.486;9.568;2022-07-21T05:06:14;6.30;;;3.90;;
6282;SDS011;3174;53.486;9.568;2022-07-21T05:08:48;8.55;;;5.10;;
6282;SDS011;3174;53.486;9.568;2022-07-21T05:11:17;10.02;;;5.13;;
6282;SDS011;3174;53.486;9.568;2022-07-21T05:13:45;7.22;;;3.63;;
6282;SDS011;3174;53.486;9.568;2022-07-21T05:16:13;10.07;;;5.47;;
6282;SDS011;3174;53.486;9.568;2022-07-21T05:18:42;8.95;;;5.68;;
6282;SDS011;3174;53.486;9.568;2022-07-21T05:21:11;8.63;;;5.30;;
6282;SDS011;3174;53.486;9.568;2022-07-21T05:23:39;9.60;;;4.68;;
6282;SDS011;3174;53.486;9.568;2022-07-21T05:26:07;10.25;;;4.78;;
6282;SDS011;3174;53.486;9.568;2022-07-21T05:28:35;11.63;;;5.30;;
6282;SDS011;3174;53.486;9.568;2022-07-21T05:31:03;5.28;;;3.72;;
6282;SDS011;3174;53.486;9.568;2022-07-21T05:33:31;6.83;;;3.40;;
6282;SDS011;3174;53.486;9.568;2022-07-21T05:35:59;13.48;;;5.60;;
6282;SDS011;3174;53.486;9.568;2022-07-21T05:38:29;7.90;;;4.38;;
6282;SDS011;3174;53.486;9.568;2022-07-21T05:40:57;4.53;;;3.28;;
6282;SDS011;3174;53.486;9.568;2022-07-21T05:43:29;6.28;;;3.97;;
6282;SDS011;3174;53.486;9.568;2022-07-21T05:45:57;7.85;;;3.53;;
6282;SDS011;3174;53.486;9.568;2022-07-21T05:48:25;5.30;;;3.20;;
6282;SDS011;3174;53.486;9.568;2022-07-21T05:50:53;4.28;;;3.15;;
6282;SDS011;3174;53.486;9.568;2022-07-21T05:53:21;5.82;;;3.50;;
6282;SDS011;3174;53.486;9.568;2022-07-21T05:55:51;9.82;;;5.55;;
6282;SDS011;3174;53.486;9.568;2022-07-21T05:58:19;7.73;;;4.80;;
6282;SDS011;3174;53.486;9.568;2022-07-21T06:00:51;9.55;;;5.68;;
6282;SDS011;3174;53.486;9.568;2022-07-21T06:03:33;9.27;;;5.68;;
6282;SDS011;3174;53.486;9.568;2022-07-21T06:06:01;5.78;;;4.93;;
6282;SDS011;3174;53.486;9.568;2022-07-21T06:08:29;7.10;;;4.53;;
6282;SDS011;3174;53.486;9.568;2022-07-21T06:10:58;5.25;;;3.28;;
6282;SDS011;3174;53.486;9.568;2022-07-21T06:13:26;4.13;;;3.28;;
6282;SDS011;3174;53.486;9.568;2022-07-21T06:15:54;5.05;;;3.55;;
6282;SDS011;3174;53.486;9.568;2022-07-21T06:18:22;10.43;;;4.85;;
6282;SDS011;3174;53.486;9.568;2022-07-21T06:20:50;10.02;;;5.03;;
6282;SDS011;3174;53.486;9.568;2022-07-21T06:23:18;6.40;;;3.60;;
6282;SDS011;3174;53.486;9.568;2022-07-21T06:25:46;7.43;;;3.88;;
6282;SDS011;3174;53.486;9.568;2022-07-21T06:28:16;8.40;;;4.03;;
6282;SDS011;3174;53.486;9.568;2022-07-21T06:30:44;10.45;;;6.22;;
6282;SDS011;3174;53.486;9.568;2022-07-21T06:33:12;5.72;;;3.67;;
6282;SDS011;3174;53.486;9.568;2022-07-21T06:35:40;5.88;;;4.03;;
6282;SDS011;3174;53.486;9.568;2022-07-21T06:38:08;5.47;;;3.65;;
6282;SDS011;3174;53.486;9.568;2022-07-21T06:40:38;5.78;;;4.30;;
6282;SDS011;3174;53.486;9.568;2022-07-21T06:43:08;5.20;;;3.55;;
6282;SDS011;3174;53.486;9.568;2022-07-21T06:45:56;4.87;;;3.53;;
6282;SDS011;3174;53.486;9.568;2022-07-21T06:48:24;5.88;;;3.42;;
6282;SDS011;3174;53.486;9.568;2022-07-21T06:50:53;10.60;;;6.38;;
6282;SDS011;3174;53.486;9.568;2022-07-21T06:53:21;9.23;;;5.97;;
6282;SDS011;3174;53.486;9.568;2022-07-21T06:55:49;9.43;;;5.50;;
6282;SDS011;3174;53.486;9.568;2022-07-21T06:58:27;12.75;;;6.70;;
6282;SDS011;3174;53.486;9.568;2022-07-21T07:01:05;8.93;;;6.20;;
6282;SDS011;3174;53.486;9.568;2022-07-21T07:03:34;11.30;;;5.95;;
6282;SDS011;3174;53.486;9.568;2022-07-21T07:06:03;8.68;;;4.82;;
6282;SDS011;3174;53.486;9.568;2022-07-21T07:08:31;11.73;;;6.22;;
6282;SDS011;3174;53.486;9.568;2022-07-21T07:11:09;12.55;;;6.57;;
6282;SDS011;3174;53.486;9.568;2022-07-21T07:13:37;11.52;;;6.25;;
6282;SDS011;3174;53.486;9.568;2022-07-21T07:16:26;12.63;;;6.22;;
6282;SDS011;3174;53.486;9.568;2022-07-21T07:18:54;5.28;;;3.72;;
6282;SDS011;3174;53.486;9.568;2022-07-21T07:21:23;7.43;;;4.50;;
6282;SDS011;3174;53.486;9.568;2022-07-21T07:23:51;13.00;;;5.73;;
6282;SDS011;3174;53.486;9.568;2022-07-21T07:26:19;14.20;;;7.50;;
6282;SDS011;3174;53.486;9.568;2022-07-21T07:28:47;30.77;;;17.55;;
6282;SDS011;3174;53.486;9.568;2022-07-21T07:31:16;13.30;;;7.10;;
6282;SDS011;3174;53.486;9.568;2022-07-21T07:33:45;19.30;;;12.85;;
6282;SDS011;3174;53.486;9.568;2022-07-21T07:36:13;8.82;;;6.00;;
6282;SDS011;3174;53.486;9.568;2022-07-21T07:38:41;11.05;;;6.88;;
6282;SDS011;3174;53.486;9.568;2022-07-21T07:41:09;10.88;;;7.03;;
6282;SDS011;3174;53.486;9.568;2022-07-21T07:43:37;13.77;;;7.23;;
6282;SDS011;3174;53.486;9.568;2022-07-21T07:46:05;9.98;;;5.07;;
6282;SDS011;3174;53.486;9.568;2022-07-21T07:48:37;10.27;;;7.27;;
6282;SDS011;3174;53.486;9.568;2022-07-21T07:51:08;13.60;;;7.07;;
6282;SDS011;3174;53.486;9.568;2022-07-21T07:53:36;11.95;;;6.78;;
6282;SDS011;3174;53.486;9.568;2022-07-21T07:56:04;11.80;;;6.63;;
6282;SDS011;3174;53.486;9.568;2022-07-21T07:58:33;10.87;;;6.77;;
6282;SDS011;3174;53.486;9.568;2022-07-21T08:01:02;12.13;;;7.55;;
6282;SDS011;3174;53.486;9.568;2022-07-21T08:03:34;10.57;;;6.57;;
6282;SDS011;3174;53.486;9.568;2022-07-21T08:06:03;10.77;;;6.53;;
6282;SDS011;3174;53.486;9.568;2022-07-21T08:08:34;11.75;;;7.15;;
6282;SDS011;3174;53.486;9.568;2022-07-21T08:11:02;11.90;;;6.97;;
6282;SDS011;3174;53.486;9.568;2022-07-21T08:13:30;11.25;;;6.25;;
6282;SDS011;3174;53.486;9.568;2022-07-21T08:15:58;9.23;;;6.77;;
6282;SDS011;3174;53.486;9.568;2022-07-21T08:18:26;9.35;;;5.35;;
6282;SDS011;3174;53.486;9.568;2022-07-21T08:20:54;8.95;;;6.07;;
6282;SDS011;3174;53.486;9.568;2022-07-21T08:23:22;13.13;;;7.38;;
6282;SDS011;3174;53.486;9.568;2022-07-21T08:25:52;11.23;;;6.85;;
6282;SDS011;3174;53.486;9.568;2022-07-21T08:28:20;10.07;;;6.03;;
6282;SDS011;3174;53.486;9.568;2022-07-21T08:30:48;10.82;;;6.45;;
6282;SDS011;3174;53.486;9.568;2022-07-21T08:33:16;11.43;;;6.57;;
6282;SDS011;3174;53.486;9.568;2022-07-21T08:35:44;13.88;;;8.02;;
6282;SDS011;3174;53.486;9.568;2022-07-21T08:38:12;14.55;;;8.73;;
6282;SDS011;3174;53.486;9.568;2022-07-21T08:40:41;11.32;;;7.35;;
6282;SDS011;3174;53.486;9.568;2022-07-21T08:43:12;12.40;;;7.70;;
6282;SDS011;3174;53.486;9.568;2022-07-21T08:45:41;8.50;;;6.25;;
6282;SDS011;3174;53.486;9.568;2022-07-21T08:48:09;9.17;;;6.63;;
6282;SDS011;3174;53.486;9.568;2022-07-21T08:50:38;8.98;;;7.18;;
6282;SDS011;3174;53.486;9.568;2022-07-21T08:53:06;7.30;;;5.15;;
6282;SDS011;3174;53.486;9.568;2022-07-21T08:55:35;10.10;;;5.80;;
6282;SDS011;3174;53.486;9.568;2022-07-21T08:58:06;9.90;;;5.43;;
6282;SDS011;3174;53.486;9.568;2022-07-21T09:00:37;9.57;;;5.90;;
6282;SDS011;3174;53.486;9.568;2022-07-21T09:03:10;8.10;;;5.40;;
6282;SDS011;3174;53.486;9.568;2022-07-21T09:05:39;7.90;;;5.10;;
6282;SDS011;3174;53.486;9.568;2022-07-21T09:08:08;5.45;;;4.10;;
6282;SDS011;3174;53.486;9.568;2022-07-21T09:10:36;7.43;;;5.57;;
6282;SDS011;3174;53.486;9.568;2022-07-21T09:13:05;7.13;;;4.60;;
6282;SDS011;3174;53.486;9.568;2022-07-21T09:15:34;7.05;;;4.55;;
6282;SDS011;3174;53.486;9.568;2022-07-21T09:18:11;7.03;;;5.22;;
6282;SDS011;3174;53.486;9.568;2022-07-21T09:20:45;10.43;;;6.93;;
6282;SDS011;3174;53.486;9.568;2022-07-21T09:23:15;9.27;;;5.07;;
6282;SDS011;3174;53.486;9.568;2022-07-21T09:25:45;8.30;;;6.20;;
6282;SDS011;3174;53.486;9.568;2022-07-21T09:28:15;6.65;;;5.47;;
6282;SDS011;3174;53.486;9.568;2022-07-21T09:30:52;10.70;;;7.38;;
6282;SDS011;3174;53.486;9.568;2022-07-21T09:33:24;10.80;;;8.55;;
6282;SDS011;3174;53.486;9.568;2022-07-21T09:35:55;9.05;;;6.15;;
6282;SDS011;3174;53.486;9.568;2022-07-21T09:38:24;10.20;;;7.80;;
6282;SDS011;3174;53.486;9.568;2022-07-21T09:40:53;13.50;;;8.60;;
6282;SDS011;3174;53.486;9.568;2022-07-21T09:43:34;12.68;;;7.95;;
6282;SDS011;3174;53.486;9.568;2022-07-21T09:46:12;9.73;;;7.55;;
6282;SDS011;3174;53.486;9.568;2022-07-21T09:48:43;8.23;;;7.20;;
6282;SDS011;3174;53.486;9.568;2022-07-21T09:51:33;9.10;;;7.57;;
6282;SDS011;3174;53.486;9.568;2022-07-21T09:54:04;10.38;;;7.45;;
6282;SDS011;3174;53.486;9.568;2022-07-21T09:56:35;7.40;;;6.22;;
6282;SDS011;3174;53.486;9.568;2022-07-21T09:59:04;10.95;;;7.25;;
6282;SDS011;3174;53.486;9.568;2022-07-21T10:01:33;7.90;;;6.60;;
6282;SDS011;3174;53.486;9.568;2022-07-21T10:04:04;7.03;;;6.25;;
6282;SDS011;3174;53.486;9.568;2022-07-21T10:06:33;7.50;;;5.80;;
6282;SDS011;3174;53.486;9.568;2022-07-21T10:09:03;6.07;;;5.47;;
6282;SDS011;3174;53.486;9.568;2022-07-21T10:11:32;7.10;;;5.43;;
6282;SDS011;3174;53.486;9.568;2022-07-21T10:14:01;7.50;;;4.95;;
6282;SDS011;3174;53.486;9.568;2022-07-21T10:16:29;5.60;;;4.50;;
6282;SDS011;3174;53.486;9.568;2022-07-21T10:18:58;4.40;;;4.00;;
6282;SDS011;3174;53.486;9.568;2022-07-21T10:21:33;5.57;;;4.38;;
6282;SDS011;3174;53.486;9.568;2022-07-21T10:24:05;4.47;;;4.05;;
6282;SDS011;3174;53.486;9.568;2022-07-21T10:26:37;5.97;;;4.75;;
6282;SDS011;3174;53.486;9.568;2022-07-21T10:29:06;6.22;;;4.47;;
6282;SDS011;3174;53.486;9.568;2022-07-21T10:31:36;7.20;;;5.38;;
6282;SDS011;3174;53.486;9.568;2022-07-21T10:34:09;4.82;;;4.32;;
6282;SDS011;3174;53.486;9.568;2022-07-21T10:36:41;5.35;;;4.60;;
6282;SDS011;3174;53.486;9.568;2022-07-21T10:39:20;5.55;;;4.63;;
6282;SDS011;3174;53.486;9.568;2022-07-21T10:41:52;5.43;;;4.78;;
6282;SDS011;3174;53.486;9.568;2022-07-21T10:44:40;6.40;;;5.28;;
6282;SDS011;3174;53.486;9.568;2022-07-21T10:47:10;6.35;;;4.78;;
6282;SDS011;3174;53.486;9.568;2022-07-21T10:49:47;5.20;;;4.30;;
6282;SDS011;3174;53.486;9.568;2022-07-21T10:55:26;6.65;;;5.60;;
6282;SDS011;3174;53.486;9.568;2022-07-21T11:00:47;6.82;;;4.75;;
6282;SDS011;3174;53.486;9.568;2022-07-21T11:03:17;6.60;;;4.82;;
6282;SDS011;3174;53.486;9.568;2022-07-21T11:06:09;6.93;;;5.07;;
6282;SDS011;3174;53.486;9.568;2022-07-21T11:08:42;7.43;;;5.47;;
6282;SDS011;3174;53.486;9.568;2022-07-21T11:11:12;6.15;;;5.40;;
6282;SDS011;3174;53.486;9.568;2022-07-21T11:13:57;7.15;;;4.95;;
6282;SDS011;3174;53.486;9.568;2022-07-21T11:19:29;6.78;;;4.03;;
6282;SDS011;3174;53.486;9.568;2022-07-21T11:22:00;5.20;;;4.22;;
6282;SDS011;3174;53.486;9.568;2022-07-21T11:24:30;5.32;;;4.18;;
6282;SDS011;3174;53.486;9.568;2022-07-21T11:26:59;4.40;;;3.72;;
6282;SDS011;3174;53.486;9.568;2022-07-21T11:29:29;4.65;;;4.10;;
6282;SDS011;3174;53.486;9.568;2022-07-21T11:31:57;5.60;;;3.88;;
6282;SDS011;3174;53.486;9.568;2022-07-21T11:34:37;3.90;;;3.30;;
6282;SDS011;3174;53.486;9.568;2022-07-21T11:37:10;3.85;;;3.33;;
6282;SDS011;3174;53.486;9.568;2022-07-21T11:40:02;4.78;;;3.38;;
6282;SDS011;3174;53.486;9.568;2022-07-21T11:42:31;3.92;;;3.40;;
6282;SDS011;3174;53.486;9.568;2022-07-21T11:45:00;4.65;;;3.63;;
6282;SDS011;3174;53.486;9.568;2022-07-21T11:47:28;5.20;;;3.08;;
6282;SDS011;3174;53.486;9.568;2022-07-21T11:49:56;3.75;;;2.70;;
6282;SDS011;3174;53.486;9.568;2022-07-21T11:52:26;4.35;;;3.17;;
6282;SDS011;3174;53.486;9.568;2022-07-21T11:54:56;2.92;;;2.60;;
6282;SDS011;3174;53.486;9.568;2022-07-21T11:57:26;4.20;;;2.70;;
6282;SDS011;3174;53.486;9.568;2022-07-21T11:59:56;2.83;;;2.50;;
6282;SDS011;3174;53.486;9.568;2022-07-21T12:02:25;3.47;;;2.33;;
6282;SDS011;3174;53.486;9.568;2022-07-21T12:04:55;2.80;;;2.35;;
6282;SDS011;3174;53.486;9.568;2022-07-21T12:07:25;2.67;;;2.15;;
6282;SDS011;3174;53.486;9.568;2022-07-21T12:09:55;2.33;;;2.10;;
6282;SDS011;3174;53.486;9.568;2022-07-21T12:12:33;2.47;;;2.20;;
6282;SDS011;3174;53.486;9.568;2022-07-21T12:15:13;2.35;;;2.15;;
6282;SDS011;3174;53.486;9.568;2022-07-21T12:17:43;4.05;;;2.10;;
6282;SDS011;3174;53.486;9.568;2022-07-21T12:20:12;2.30;;;2.10;;
6282;SDS011;3174;53.486;9.568;2022-07-21T12:22:41;2.60;;;1.95;;
6282;SDS011;3174;53.486;9.568;2022-07-21T12:25:11;2.17;;;1.92;;
6282;SDS011;3174;53.486;9.568;2022-07-21T12:27:41;2.70;;;2.10;;
6282;SDS011;3174;53.486;9.568;2022-07-21T12:30:11;2.58;;;1.95;;
6282;SDS011;3174;53.486;9.568;2022-07-21T12:33:00;1.80;;;1.70;;
6282;SDS011;3174;53.486;9.568;2022-07-21T12:35:30;2.72;;;2.40;;
6282;SDS011;3174;53.486;9.568;2022-07-21T12:38:00;3.97;;;2.42;;
6282;SDS011;3174;53.486;9.568;2022-07-21T12:40:33;3.13;;;2.22;;
6282;SDS011;3174;53.486;9.568;2022-07-21T12:43:04;2.05;;;1.85;;
6282;SDS011;3174;53.486;9.568;2022-07-21T12:45:44;2.40;;;2.08;;
6282;SDS011;3174;53.486;9.568;2022-07-21T12:48:15;2.33;;;2.13;;
6282;SDS011;3174;53.486;9.568;2022-07-21T12:50:57;2.75;;;2.00;;
6282;SDS011;3174;53.486;9.568;2022-07-21T12:53:27;2.35;;;2.15;;
6282;SDS011;3174;53.486;9.568;2022-07-21T12:55:56;3.13;;;2.25;;
6282;SDS011;3174;53.486;9.568;2022-07-21T12:58:25;3.08;;;2.42;;
6282;SDS011;3174;53.486;9.568;2022-07-21T13:00:53;2.10;;;1.90;;
6282;SDS011;3174;53.486;9.568;2022-07-21T13:03:21;3.67;;;2.10;;
6282;SDS011;3174;53.486;9.568;2022-07-21T13:05:56;2.60;;;2.40;;
6282;SDS011;3174;53.486;9.568;2022-07-21T13:08:25;2.70;;;2.33;;
6282;SDS011;3174;53.486;9.568;2022-07-21T13:10:53;3.42;;;2.65;;
6282;SDS011;3174;53.486;9.568;2022-07-21T13:13:21;4.05;;;2.03;;
6282;SDS011;3174;53.486;9.568;2022-07-21T13:15:51;2.50;;;2.13;;
6282;SDS011;3174;53.486;9.568;2022-07-21T13:18:19;3.08;;;2.17;;
6282;SDS011;3174;53.486;9.568;2022-07-21T13:20:48;2.58;;;2.20;;
6282;SDS011;3174;53.486;9.568;2022-07-21T13:23:16;3.25;;;2.50;;
6282;SDS011;3174;53.486;9.568;2022-07-21T13:25:45;3.00;;;2.33;;
6282;SDS011;3174;53.486;9.568;2022-07-21T13:28:29;2.83;;;2.10;;
6282;SDS011;3174;53.486;9.568;2022-07-21T13:30:58;3.40;;;2.30;;
6282;SDS011;3174;53.486;9.568;2022-07-21T13:33:26;2.35;;;2.13;;
6282;SDS011;3174;53.486;9.568;2022-07-21T13:35:54;2.88;;;2.50;;
6282;SDS011;3174;53.486;9.568;2022-07-21T13:38:22;2.45;;;2.20;;
6282;SDS011;3174;53.486;9.568;2022-07-21T13:40:50;3.28;;;2.47;;
6282;SDS011;3174;53.486;9.568;2022-07-21T13:43:38;4.03;;;2.60;;
6282;SDS011;3174;53.486;9.568;2022-07-21T13:46:09;3.15;;;2.72;;
6282;SDS011;3174;53.486;9.568;2022-07-21T13:48:37;3.00;;;2.67;;
6282;SDS011;3174;53.486;9.568;2022-07-21T13:51:10;3.28;;;2.97;;
6282;SDS011;3174;53.486;9.568;2022-07-21T13:53:39;3.90;;;3.03;;
6282;SDS011;3174;53.486;9.568;2022-07-21T13:56:07;3.40;;;2.92;;
6282;SDS011;3174;53.486;9.568;2022-07-21T13:58:36;4.05;;;3.55;;
6282;SDS011;3174;53.486;9.568;2022-07-21T14:01:04;4.13;;;3.40;;
6282;SDS011;3174;53.486;9.568;2022-07-21T14:03:35;4.50;;;3.13;;
6282;SDS011;3174;53.486;9.568;2022-07-21T14:06:04;3.78;;;3.22;;
6282;SDS011;3174;53.486;9.568;2022-07-21T14:08:32;4.78;;;3.58;;
6282;SDS011;3174;53.486;9.568;2022-07-21T14:11:00;4.10;;;3.63;;
6282;SDS011;3174;53.486;9.568;2022-07-21T14:13:28;5.10;;;4.03;;
6282;SDS011;3174;53.486;9.568;2022-07-21T14:15:56;4.40;;;3.85;;
6282;SDS011;3174;53.486;9.568;2022-07-21T14:18:24;4.78;;;3.80;;
6282;SDS011;3174;53.486;9.568;2022-07-21T14:20:54;3.95;;;3.55;;
6282;SDS011;3174;53.486;9.568;2022-07-21T14:23:22;4.65;;;3.80;;
6282;SDS011;3174;53.486;9.568;2022-07-21T14:25:50;5.03;;;4.53;;
6282;SDS011;3174;53.486;9.568;2022-07-21T14:28:20;5.60;;;4.28;;
6282;SDS011;3174;53.486;9.568;2022-07-21T14:30:48;4.35;;;3.95;;
6282;SDS011;3174;53.486;9.568;2022-07-21T14:33:24;6.00;;;4.80;;
6282;SDS011;3174;53.486;9.568;2022-07-21T14:35:54;6.85;;;4.97;;
6282;SDS011;3174;53.486;9.568;2022-07-21T14:38:22;5.07;;;4.57;;
6282;SDS011;3174;53.486;9.568;2022-07-21T14:40:50;5.95;;;5.35;;
6282;SDS011;3174;53.486;9.568;2022-07-21T14:43:18;8.05;;;6.10;;
6282;SDS011;3174;53.486;9.568;2022-07-21T14:45:46;6.93;;;6.15;;
6282;SDS011;3174;53.486;9.568;2022-07-21T14:48:14;8.20;;;5.93;;
6282;SDS011;3174;53.486;9.568;2022-07-21T14:50:42;6.15;;;5.55;;
6282;SDS011;3174;53.486;9.568;2022-07-21T14:53:11;8.10;;;6.45;;
6282;SDS011;3174;53.486;9.568;2022-07-21T14:55:39;6.93;;;6.22;;
6282;SDS011;3174;53.486;9.568;2022-07-21T14:58:10;10.18;;;6.63;;
6282;SDS011;3174;53.486;9.568;2022-07-21T15:00:38;7.78;;;6.97;;
6282;SDS011;3174;53.486;9.568;2022-07-21T15:03:06;8.30;;;6.68;;
6282;SDS011;3174;53.486;9.568;2022-07-21T15:05:34;8.40;;;7.13;;
6282;SDS011;3174;53.486;9.568;2022-07-21T15:08:02;8.95;;;7.40;;
6282;SDS011;3174;53.486;9.568;2022-07-21T15:10:39;7.43;;;6.60;;
6282;SDS011;3174;53.486;9.568;2022-07-21T15:13:08;7.68;;;6.28;;
6282;SDS011;3174;53.486;9.568;2022-07-21T15:15:36;5.45;;;4.10;;
6282;SDS011;3174;53.486;9.568;2022-07-21T15:18:04;5.03;;;4.47;;
6282;SDS011;3174;53.486;9.568;2022-07-21T15:20:32;7.78;;;5.28;;
6282;SDS011;3174;53.486;9.568;2022-07-21T15:23:00;7.00;;;5.25;;
6282;SDS011;3174;53.486;9.568;2022-07-21T15:25:29;5.50;;;4.88;;
6282;SDS011;3174;53.486;9.568;2022-07-21T15:27:58;7.35;;;5.72;;
6282;SDS011;3174;53.486;9.568;2022-07-21T15:30:26;7.95;;;5.53;;
6282;SDS011;3174;53.486;9.568;2022-07-21T15:32:54;7.20;;;5.60;;
6282;SDS011;3174;53.486;9.568;2022-07-21T15:35:22;6.00;;;5.20;;
6282;SDS011;3174;53.486;9.568;2022-07-21T15:37:50;7.30;;;5.65;;